x

Devils Island, Wi (disw3) Weather Station

5:00am - Sat 6th Feb 2016 All times are CST. -6 hours from GMT.

  • Wind
    23mph, 26mph gusts
  • Air Temp 28°f
  • Sea Pressure 1018.5mb
  • Devils Island, Wi
  • Devils Island, Wi

More Historic Weather Station data

Upgrade to MSW Pro to gain access to the past 30 days of data for over 8000 Wavebouys and Weather Stations around the globe.

Join Pro

Comparision Forecast

View Surf forecast
   
Sat 02/06 5:00am 23 26 mph 1018.5mb 28f
4:00am 23 25 mph 1018.5mb 28f
3:00am 21 25 mph 1018.7mb 29f
2:00am 24 30 mph 1018.9mb 28f
1:00am 25 30 mph 1018.9mb 28f
12:00am 23 29 mph 1019.1mb 28f
Fri 02/05 11:00pm 26 31 mph 1019.4mb 28f
10:00pm 26 32 mph 1020mb 29f
9:00pm 29 36 mph 1020.1mb 29f
8:00pm 26 30 mph 1020.2mb 29f
7:00pm 23 28 mph 1020.6mb 29f
6:00pm 9 11 mph 1021.1mb 29f
5:00pm 9 11 mph 1021.6mb 27f
4:00pm 8 10 mph 1022.2mb 25f
3:00pm 9 13 mph 1023.2mb 25f
2:00pm 9 11 mph 1024.3mb 23f
1:00pm 5 8 mph 1025.3mb 22f
12:00pm 6 8 mph 1026.3mb 21f
11:00am 11 14 mph 1027.2mb 20f
10:00am 9 13 mph 1027.4mb 19f
9:00am 7 9 mph 1027.5mb 19f
8:00am 5 6 mph 1027.4mb 19f
7:00am 6 8 mph 1027.5mb 19f
6:00am 7 8 mph 1026.9mb 19f
5:00am 10 14 mph 1026.3mb 19f
4:00am 8 9 mph 1025.8mb 19f
3:00am 10 13 mph 1025.6mb 19f
2:00am 10 11 mph 1025.6mb 19f
1:00am 11 14 mph 1025mb 20f
12:00am 10 13 mph 1024.4mb 20f
Thu 02/04 11:00pm 14 16 mph 1023.6mb 21f
10:00pm 16 18 mph 1022.9mb 21f
9:00pm 20 22 mph 1022.3mb 23f
8:00pm 18 22 mph 1021.5mb 26f
7:00pm 18 21 mph 1021.3mb 27f
6:00pm 13 15 mph 1021mb 26f
5:00pm 13 15 mph 1020.4mb 25f
4:00pm 15 17 mph 1019.8mb 23f
3:00pm 13 15 mph 1019.4mb 22f
2:00pm 7 10 mph 1019.1mb 22f
1:00pm 5 7 mph 1019.3mb 22f
12:00pm 8 9 mph 1019.6mb 21f
11:00am 6 9 mph 1020mb 20f
10:00am 7 10 mph 1020.1mb 19f
9:00am 8 9 mph 1019.9mb 19f
8:00am 8 10 mph 1019.8mb 19f
7:00am 9 10 mph 1019.4mb 18f
6:00am 9 11 mph 1019mb 19f
5:00am 8 10 mph 1019mb 19f
4:00am 8 10 mph 1018.7mb 19f
3:00am 5 6 mph 1018.7mb 20f
2:00am 3 5 mph 1018.6mb 19f
1:00am 6 9 mph 1018.3mb 19f
12:00am 6 7 mph 1018.1mb 19f
Wed 02/03 11:00pm 6 7 mph 1017.7mb 19f
10:00pm 10 14 mph 1017.5mb 20f
9:00pm 15 18 mph 1017.1mb 20f
8:00pm 20 25 mph 1016.6mb 21f
7:00pm 17 22 mph 1016.2mb 21f
6:00pm 23 26 mph 1015.5mb 22f
5:00pm 18 22 mph 1014.3mb 22f
4:00pm 20 22 mph 1013.2mb 21f
3:00pm 20 22 mph 1012mb 21f
2:00pm 16 18 mph 1011mb 21f
1:00pm 17 21 mph 1010.6mb 21f
12:00pm 16 18 mph 1010.3mb 20f
11:00am 18 24 mph 1010.4mb 19f
10:00am 22 24 mph 1010mb 19f
9:00am 24 30 mph 1009.6mb 19f
8:00am 26 29 mph 1009.2mb 20f
7:00am 28 31 mph 1009.1mb 21f
6:00am 28 31 mph 1008.9mb 21f
5:00am 30 33 mph 1009.1mb 22f
4:00am 30 32 mph 1009mb 22f
3:00am 34 38 mph 1009.3mb 23f
2:00am 32 39 mph 1009.9mb 23f
1:00am 29 34 mph 1010.8mb 24f
12:00am 34 41 mph 1011.2mb 24f
Tue 02/02 11:00pm 34 39 mph 1012.2mb 25f
10:00pm 34 40 mph 1013.1mb 24f
9:00pm 32 37 mph 1014.3mb 25f
8:00pm 34 37 mph 1015.5mb 25f
7:00pm 34 38 mph 1016.1mb 26f
6:00pm 31 37 mph 1016.5mb 27f
5:00pm 32 38 mph 1016.5mb 27f
4:00pm 33 37 mph 1017.2mb 28f
3:00pm 29 31 mph 1018mb 29f
2:00pm 22 24 mph 1018.7mb 29f
1:00pm 16 18 mph 1020.1mb 29f